createdAt,value
2023-05-13T00:01:25.864Z,6.10
2023-05-13T00:03:54.078Z,6.18
2023-05-13T00:06:22.291Z,6.63
2023-05-13T00:08:50.456Z,5.72
2023-05-13T00:11:18.636Z,6.22
2023-05-13T00:13:48.295Z,6.47
2023-05-13T00:16:16.649Z,5.93
2023-05-13T00:18:44.870Z,6.05
2023-05-13T00:21:13.204Z,6.47
2023-05-13T00:23:41.939Z,5.85
2023-05-13T00:26:10.098Z,6.40
2023-05-13T00:28:38.290Z,6.35
2023-05-13T00:31:07.993Z,6.55
2023-05-13T00:33:36.330Z,5.97
2023-05-13T00:36:04.701Z,6.68
2023-05-13T00:38:32.981Z,6.60
2023-05-13T00:41:01.220Z,7.28
2023-05-13T00:43:29.441Z,6.85
2023-05-13T00:45:58.246Z,7.03
2023-05-13T00:48:28.164Z,7.13
2023-05-13T00:50:56.801Z,6.68
2023-05-13T00:53:25.117Z,6.85
2023-05-13T00:55:53.323Z,7.68
2023-05-13T00:58:21.477Z,6.20
2023-05-13T01:00:56.755Z,7.68
2023-05-13T01:03:34.695Z,7.43
2023-05-13T01:06:10.074Z,7.38
2023-05-13T01:08:44.526Z,7.25
2023-05-13T01:11:18.543Z,8.10
2023-05-13T01:13:49.352Z,8.05
2023-05-13T01:16:23.296Z,7.57
2023-05-13T01:19:03.485Z,8.82
2023-05-13T01:21:36.977Z,8.45
2023-05-13T01:24:05.690Z,7.90
2023-05-13T01:26:33.779Z,8.18
2023-05-13T01:29:02.075Z,8.75
2023-05-13T01:31:31.125Z,8.60
2023-05-13T01:33:59.500Z,9.50
2023-05-13T01:36:30.852Z,9.38
2023-05-13T01:39:02.456Z,9.63
2023-05-13T01:41:32.073Z,9.07
2023-05-13T01:44:00.405Z,9.57
2023-05-13T01:46:29.322Z,9.27
2023-05-13T01:48:57.468Z,9.50
2023-05-13T01:51:25.608Z,10.05
2023-05-13T01:53:53.705Z,9.77
2023-05-13T01:56:23.774Z,10.68
2023-05-13T01:58:52.427Z,9.30
2023-05-13T02:01:22.462Z,10.57
2023-05-13T02:03:51.145Z,10.35
2023-05-13T02:06:20.839Z,10.80
2023-05-13T02:08:49.070Z,11.75
2023-05-13T02:11:17.190Z,12.05
2023-05-13T02:13:46.720Z,11.88
2023-05-13T02:16:16.244Z,12.13
2023-05-13T02:18:44.517Z,12.00
2023-05-13T02:21:12.749Z,13.50
2023-05-13T02:23:40.801Z,13.40
2023-05-13T02:26:08.964Z,14.60
2023-05-13T02:28:37.764Z,15.02
2023-05-13T02:31:07.653Z,15.48
2023-05-13T02:33:35.686Z,17.42
2023-05-13T02:36:03.925Z,18.05
2023-05-13T02:38:32.055Z,18.55
2023-05-13T02:41:00.492Z,19.67
2023-05-13T02:43:29.954Z,21.15
2023-05-13T02:46:03.810Z,20.73
2023-05-13T02:48:35.036Z,23.70
2023-05-13T02:51:03.297Z,22.98
2023-05-13T02:53:31.434Z,22.55
2023-05-13T02:56:04.071Z,25.45
2023-05-13T02:58:32.284Z,24.45
2023-05-13T03:01:00.760Z,26.10
2023-05-13T03:03:29.222Z,25.02
2023-05-13T03:05:59.194Z,26.20
2023-05-13T03:08:27.468Z,24.48
2023-05-13T03:10:55.633Z,26.00
2023-05-13T03:13:23.720Z,25.27
2023-05-13T03:15:51.753Z,25.98
2023-05-13T03:18:19.873Z,25.38
2023-05-13T03:20:48.122Z,23.92
2023-05-13T03:23:17.580Z,25.17
2023-05-13T03:25:48.301Z,24.13
2023-05-13T03:28:16.453Z,23.33
2023-05-13T03:30:45.599Z,23.50
2023-05-13T03:33:17.454Z,23.75
2023-05-13T03:35:48.509Z,22.27
2023-05-13T03:38:19.340Z,22.13
2023-05-13T03:40:50.608Z,22.85
2023-05-13T03:43:18.867Z,21.25
2023-05-13T03:45:52.840Z,21.77
2023-05-13T03:48:23.198Z,21.35
2023-05-13T03:50:53.092Z,19.80
2023-05-13T03:53:22.992Z,19.95
2023-05-13T03:55:51.449Z,19.80
2023-05-13T03:58:21.704Z,19.55
2023-05-13T04:00:50.361Z,18.83
2023-05-13T04:03:19.353Z,20.08
2023-05-13T04:05:47.934Z,18.52
2023-05-13T04:08:16.372Z,18.52
2023-05-13T04:10:46.053Z,19.15
2023-05-13T04:13:14.137Z,19.45
2023-05-13T04:15:42.261Z,18.75
2023-05-13T04:18:10.481Z,19.10
2023-05-13T04:20:39.587Z,19.30
2023-05-13T04:23:08.152Z,19.23
2023-05-13T04:25:37.819Z,20.17
2023-05-13T04:28:07.447Z,19.75
2023-05-13T04:30:42.195Z,21.50
2023-05-13T04:33:10.671Z,20.50
2023-05-13T04:35:41.172Z,20.17
2023-05-13T04:38:09.776Z,19.35
2023-05-13T04:40:37.929Z,19.42
2023-05-13T04:43:11.457Z,20.17
2023-05-13T04:45:53.026Z,19.75
2023-05-13T04:48:21.155Z,19.85
2023-05-13T04:50:49.325Z,19.30
2023-05-13T04:53:18.463Z,19.83
2023-05-13T04:55:48.193Z,20.30
2023-05-13T04:58:17.851Z,19.10
2023-05-13T05:00:46.051Z,19.73
2023-05-13T05:03:14.450Z,19.13
2023-05-13T05:05:42.848Z,19.02
2023-05-13T05:08:12.596Z,18.60
2023-05-13T05:10:41.239Z,18.17
2023-05-13T05:13:10.704Z,17.58
2023-05-13T05:15:41.725Z,17.25
2023-05-13T05:18:10.557Z,17.40
2023-05-13T05:20:43.120Z,17.33
2023-05-13T05:23:16.329Z,16.65
2023-05-13T05:25:44.770Z,16.90
2023-05-13T05:28:12.841Z,16.35
2023-05-13T05:30:45.088Z,16.38
2023-05-13T05:33:23.534Z,16.50
2023-05-13T05:35:52.356Z,16.00
2023-05-13T05:38:25.205Z,16.27
2023-05-13T05:40:54.214Z,14.48
2023-05-13T05:43:22.301Z,14.52
2023-05-13T05:45:54.105Z,15.23
2023-05-13T05:48:23.215Z,14.65
2023-05-13T05:50:51.577Z,13.98
2023-05-13T05:53:26.537Z,13.85
2023-05-13T05:55:55.286Z,13.45
2023-05-13T05:58:23.755Z,12.30
2023-05-13T06:00:54.432Z,12.65
2023-05-13T06:03:22.721Z,12.45
2023-05-13T06:05:50.784Z,12.25
2023-05-13T06:08:20.293Z,11.90
2023-05-13T06:10:48.394Z,11.98
2023-05-13T06:13:17.235Z,11.77
2023-05-13T06:15:45.669Z,11.45
2023-05-13T06:18:15.179Z,12.18
2023-05-13T06:20:43.259Z,11.07
2023-05-13T06:23:11.795Z,10.07
2023-05-13T06:25:39.834Z,10.57
2023-05-13T06:28:08.624Z,11.23
2023-05-13T06:30:38.060Z,11.40
2023-05-13T06:33:06.285Z,11.32
2023-05-13T06:35:35.758Z,10.93
2023-05-13T06:38:06.124Z,10.55
2023-05-13T06:40:34.639Z,10.80
2023-05-13T06:43:03.212Z,10.65
2023-05-13T06:45:33.012Z,10.75
2023-05-13T06:48:01.498Z,10.70
2023-05-13T06:50:29.788Z,10.70
2023-05-13T06:52:59.308Z,9.93
2023-05-13T06:55:27.367Z,10.55
2023-05-13T06:57:55.375Z,10.55
2023-05-13T07:00:24.086Z,9.88
2023-05-13T07:02:52.309Z,9.63
2023-05-13T07:05:20.876Z,10.43
2023-05-13T07:07:53.520Z,9.93
2023-05-13T07:10:23.256Z,10.00
2023-05-13T07:12:51.770Z,9.43
2023-05-13T07:15:20.130Z,10.05
2023-05-13T07:17:48.637Z,9.63
2023-05-13T07:20:19.611Z,8.45
2023-05-13T07:22:47.825Z,9.30
2023-05-13T07:25:16.188Z,9.20
2023-05-13T07:27:45.826Z,8.90
2023-05-13T07:30:14.721Z,8.20
2023-05-13T07:32:42.842Z,8.05
2023-05-13T07:35:11.438Z,7.72
2023-05-13T07:37:39.530Z,8.20
2023-05-13T07:40:08.895Z,8.65
2023-05-13T07:42:37.801Z,7.93
2023-05-13T07:45:08.436Z,7.93
2023-05-13T07:47:36.641Z,7.95
2023-05-13T07:50:05.056Z,7.18
2023-05-13T07:52:33.588Z,6.88
2023-05-13T07:55:01.879Z,7.60
2023-05-13T07:57:29.911Z,7.10
2023-05-13T07:59:57.994Z,8.18
2023-05-13T08:02:28.284Z,7.15
2023-05-13T08:04:56.411Z,7.15
2023-05-13T08:07:24.496Z,7.38
2023-05-13T08:09:52.546Z,7.07
2023-05-13T08:12:20.700Z,6.90
2023-05-13T08:14:49.163Z,6.70
2023-05-13T08:17:18.314Z,6.35
2023-05-13T08:19:47.824Z,6.45
2023-05-13T08:22:15.891Z,6.30
2023-05-13T08:24:44.100Z,7.25
2023-05-13T08:27:12.784Z,6.70
2023-05-13T08:29:40.841Z,6.00
2023-05-13T08:32:09.151Z,5.88
2023-05-13T08:34:37.397Z,6.75
2023-05-13T08:37:06.934Z,5.95
2023-05-13T08:39:35.409Z,6.47
2023-05-13T08:42:05.236Z,5.97
2023-05-13T08:44:33.865Z,6.07
2023-05-13T08:47:09.945Z,6.18
2023-05-13T08:49:39.168Z,5.75
2023-05-13T08:52:09.650Z,5.72
2023-05-13T08:54:39.404Z,5.82
2023-05-13T08:57:07.680Z,5.40
2023-05-13T08:59:36.179Z,5.38
2023-05-13T09:02:06.241Z,5.90
2023-05-13T09:04:37.669Z,5.93
2023-05-13T09:07:07.034Z,5.50
2023-05-13T09:09:36.727Z,5.60
2023-05-13T09:12:05.969Z,5.70
2023-05-13T09:14:34.285Z,5.10
2023-05-13T09:17:02.938Z,5.50
2023-05-13T09:19:31.410Z,5.63
2023-05-13T09:21:59.889Z,4.97
2023-05-13T09:24:27.964Z,4.82
2023-05-13T09:26:57.465Z,4.57
2023-05-13T09:29:26.884Z,4.18
2023-05-13T09:31:56.318Z,4.47
2023-05-13T09:34:29.499Z,4.20
2023-05-13T09:37:05.624Z,4.65
2023-05-13T09:39:35.758Z,4.60
2023-05-13T09:42:05.831Z,4.88
2023-05-13T09:44:34.214Z,3.58
2023-05-13T09:47:03.501Z,4.10
2023-05-13T09:49:32.893Z,3.90
2023-05-13T09:52:00.938Z,4.40
2023-05-13T09:54:35.712Z,4.10
2023-05-13T09:57:06.058Z,4.15
2023-05-13T09:59:34.415Z,3.92
2023-05-13T10:02:05.348Z,3.83
2023-05-13T10:04:33.618Z,4.22
2023-05-13T10:07:05.143Z,4.18
2023-05-13T10:09:37.061Z,3.60
2023-05-13T10:12:09.684Z,3.65
2023-05-13T10:14:38.452Z,3.78
2023-05-13T10:17:09.275Z,3.38
2023-05-13T10:19:38.221Z,3.92
2023-05-13T10:22:07.689Z,3.80
2023-05-13T10:24:38.549Z,3.83
2023-05-13T10:27:09.138Z,4.18
2023-05-13T10:29:40.531Z,3.72
2023-05-13T10:32:10.390Z,3.58
2023-05-13T10:34:40.361Z,3.40
2023-05-13T10:37:28.955Z,3.70
2023-05-13T10:40:21.692Z,3.80
2023-05-13T10:42:57.489Z,3.35
2023-05-13T10:45:28.323Z,3.50
2023-05-13T10:47:57.351Z,3.65
2023-05-13T10:50:26.229Z,4.03
2023-05-13T10:52:58.229Z,3.78
2023-05-13T10:55:28.172Z,3.70
2023-05-13T10:58:10.128Z,3.35
2023-05-13T11:00:39.050Z,2.97
2023-05-13T11:03:14.511Z,3.10
2023-05-13T11:05:44.739Z,3.42
2023-05-13T11:08:12.997Z,3.25
2023-05-13T11:10:42.166Z,2.97
2023-05-13T11:13:24.807Z,3.38
2023-05-13T11:15:54.633Z,3.30
2023-05-13T11:18:31.115Z,3.30
2023-05-13T11:21:05.547Z,3.60
2023-05-13T11:23:35.878Z,3.15
2023-05-13T11:26:16.987Z,3.67
2023-05-13T11:28:57.712Z,3.72
2023-05-13T11:31:27.568Z,3.58
2023-05-13T11:34:12.009Z,3.03
2023-05-13T11:36:41.767Z,3.70
2023-05-13T11:39:14.875Z,3.65
2023-05-13T11:41:45.032Z,3.80
2023-05-13T11:44:16.169Z,3.50
2023-05-13T11:46:51.914Z,3.53
2023-05-13T11:49:33.596Z,3.58
2023-05-13T11:52:01.988Z,3.22
2023-05-13T11:54:30.332Z,3.53
2023-05-13T11:56:58.482Z,3.35
2023-05-13T11:59:33.363Z,3.47
2023-05-13T12:02:07.563Z,3.63
2023-05-13T12:04:35.669Z,4.22
2023-05-13T12:07:04.611Z,3.70
2023-05-13T12:09:32.683Z,3.67
2023-05-13T12:12:01.041Z,3.63
2023-05-13T12:14:30.867Z,3.35
2023-05-13T12:16:59.198Z,3.65
2023-05-13T12:19:27.319Z,3.60
2023-05-13T12:21:55.346Z,3.58
2023-05-13T12:24:23.585Z,2.85
2023-05-13T12:26:51.743Z,3.78
2023-05-13T12:29:19.871Z,3.53
2023-05-13T12:32:07.335Z,3.30
2023-05-13T12:34:36.218Z,3.70
2023-05-13T12:37:12.365Z,3.70
2023-05-13T12:39:41.588Z,3.47
2023-05-13T12:42:16.103Z,3.63
2023-05-13T12:44:45.770Z,3.40
2023-05-13T12:47:15.817Z,3.80
2023-05-13T12:49:53.741Z,3.60
2023-05-13T12:52:22.440Z,3.90
2023-05-13T12:54:50.831Z,4.05
2023-05-13T12:57:20.578Z,3.65
2023-05-13T12:59:48.772Z,3.78
2023-05-13T13:02:18.233Z,4.00
2023-05-13T13:04:46.478Z,3.85
2023-05-13T13:07:14.759Z,4.10
2023-05-13T13:09:42.935Z,3.97
2023-05-13T13:12:10.995Z,3.90
2023-05-13T13:14:39.054Z,3.75
2023-05-13T13:17:07.257Z,3.60
2023-05-13T13:19:36.676Z,3.40
2023-05-13T13:22:05.078Z,3.47
2023-05-13T13:24:33.223Z,3.38
2023-05-13T13:27:01.253Z,3.65
2023-05-13T13:29:29.308Z,3.95
2023-05-13T13:31:57.470Z,3.60
2023-05-13T13:34:25.613Z,3.90
2023-05-13T13:36:55.036Z,4.28
2023-05-13T13:39:23.094Z,3.50
2023-05-13T13:41:51.145Z,3.65
2023-05-13T13:44:19.169Z,3.70
2023-05-13T13:46:47.469Z,3.90
2023-05-13T13:49:23.094Z,3.95
2023-05-13T13:51:52.142Z,3.80
2023-05-13T13:54:21.742Z,3.97
2023-05-13T13:56:49.761Z,3.80
2023-05-13T13:59:19.282Z,3.80
2023-05-13T14:01:47.776Z,4.18
2023-05-13T14:04:17.354Z,3.83
2023-05-13T14:06:46.265Z,4.28
2023-05-13T14:09:14.266Z,4.22
2023-05-13T14:11:43.682Z,4.05
2023-05-13T14:14:11.715Z,3.83
2023-05-13T14:16:39.799Z,3.90
2023-05-13T14:19:08.072Z,3.40
2023-05-13T14:21:36.416Z,4.78
2023-05-13T14:24:04.576Z,3.92
2023-05-13T14:26:32.605Z,3.75
2023-05-13T14:29:02.025Z,4.55
2023-05-13T14:31:30.543Z,5.15
2023-05-13T14:33:58.632Z,3.83
2023-05-13T14:36:27.548Z,4.35
2023-05-13T14:38:55.699Z,4.35
2023-05-13T14:41:24.262Z,4.47
2023-05-13T14:43:52.671Z,4.22
2023-05-13T14:46:22.167Z,4.32
2023-05-13T14:48:50.309Z,4.15
2023-05-13T14:51:18.327Z,3.83
2023-05-13T14:53:46.378Z,3.90
2023-05-13T14:56:14.482Z,3.80
2023-05-13T14:58:42.711Z,3.83
2023-05-13T15:01:10.832Z,4.35
2023-05-13T15:03:40.292Z,4.25
2023-05-13T15:06:09.390Z,4.18
2023-05-13T15:08:37.714Z,4.60
2023-05-13T15:11:06.215Z,4.05
2023-05-13T15:13:35.776Z,4.00
2023-05-13T15:16:03.864Z,4.13
2023-05-13T15:18:32.293Z,4.30
2023-05-13T15:21:01.736Z,3.90
2023-05-13T15:23:29.873Z,4.50
2023-05-13T15:25:58.195Z,4.30
2023-05-13T15:28:26.240Z,4.18
2023-05-13T15:30:54.289Z,4.00
2023-05-13T15:33:22.413Z,4.03
2023-05-13T15:35:50.987Z,4.00
2023-05-13T15:38:20.398Z,3.80
2023-05-13T15:40:48.459Z,4.10
2023-05-13T15:43:16.478Z,4.00
2023-05-13T15:45:44.596Z,4.28
2023-05-13T15:48:12.717Z,3.60
2023-05-13T15:50:41.027Z,4.40
2023-05-13T15:53:09.254Z,3.80
2023-05-13T15:55:39.501Z,4.15
2023-05-13T15:58:07.772Z,3.70
2023-05-13T16:00:35.753Z,3.72
2023-05-13T16:03:03.958Z,3.90
2023-05-13T16:05:32.025Z,3.75
2023-05-13T16:08:00.167Z,3.40
2023-05-13T16:10:28.164Z,3.53
2023-05-13T16:12:57.647Z,3.90
2023-05-13T16:15:25.693Z,4.68
2023-05-13T16:17:53.768Z,3.72
2023-05-13T16:20:22.159Z,3.85
2023-05-13T16:22:50.411Z,4.07
2023-05-13T16:25:18.486Z,4.53
2023-05-13T16:27:46.501Z,4.57
2023-05-13T16:30:16.321Z,4.20
2023-05-13T16:32:44.519Z,3.83
2023-05-13T16:35:12.726Z,4.18
2023-05-13T16:37:40.826Z,3.90
2023-05-13T16:40:10.058Z,4.22
2023-05-13T16:42:38.245Z,3.97
2023-05-13T16:45:07.849Z,3.90
2023-05-13T16:47:37.369Z,4.20
2023-05-13T16:50:06.656Z,3.95
2023-05-13T16:52:34.677Z,3.80
2023-05-13T16:55:03.066Z,3.92
2023-05-13T16:57:31.183Z,3.67
2023-05-13T16:59:59.207Z,3.67
2023-05-13T17:02:27.548Z,3.60
2023-05-13T17:04:56.987Z,3.85
2023-05-13T17:07:25.009Z,3.58
2023-05-13T17:09:53.097Z,4.05
2023-05-13T17:12:21.108Z,3.80
2023-05-13T17:14:49.210Z,3.65
2023-05-13T17:17:17.250Z,4.10
2023-05-13T17:19:45.335Z,3.60
2023-05-13T17:22:14.776Z,3.70
2023-05-13T17:24:43.092Z,3.60
2023-05-13T17:27:11.370Z,3.70
2023-05-13T17:29:39.383Z,3.70
2023-05-13T17:32:08.110Z,3.67
2023-05-13T17:34:36.169Z,4.15
2023-05-13T17:37:04.239Z,4.22
2023-05-13T17:39:33.662Z,3.67
2023-05-13T17:42:01.760Z,4.22
2023-05-13T17:44:30.001Z,3.65
2023-05-13T17:46:58.133Z,3.55
2023-05-13T17:49:26.216Z,3.58
2023-05-13T17:51:54.281Z,3.78
2023-05-13T17:54:22.314Z,3.67
2023-05-13T17:56:51.739Z,3.65
2023-05-13T17:59:19.786Z,3.90
2023-05-13T18:01:47.875Z,3.75
2023-05-13T18:04:16.134Z,3.80
2023-05-13T18:06:44.168Z,3.50
2023-05-13T18:09:12.352Z,3.83
2023-05-13T18:11:40.476Z,3.40
2023-05-13T18:14:09.876Z,4.35
2023-05-13T18:16:37.999Z,3.83
2023-05-13T18:19:06.855Z,4.00
2023-05-13T18:21:34.947Z,4.43
2023-05-13T18:24:03.007Z,4.00
2023-05-13T18:26:31.035Z,4.10
2023-05-13T18:28:59.080Z,4.40
2023-05-13T18:31:28.499Z,4.35
2023-05-13T18:33:56.577Z,4.70
2023-05-13T18:36:24.592Z,4.63
2023-05-13T18:38:52.646Z,4.93
2023-05-13T18:41:21.424Z,4.63
2023-05-13T18:43:49.726Z,4.55
2023-05-13T18:46:17.849Z,5.90
2023-05-13T18:48:47.304Z,5.10
2023-05-13T18:51:16.479Z,5.70
2023-05-13T18:53:44.998Z,5.60
2023-05-13T18:56:13.100Z,6.00
2023-05-13T18:58:41.155Z,6.13
2023-05-13T19:01:09.587Z,6.32
2023-05-13T19:03:38.082Z,5.50
2023-05-13T19:06:08.220Z,5.82
2023-05-13T19:08:36.486Z,5.95
2023-05-13T19:11:04.817Z,5.60
2023-05-13T19:13:45.699Z,5.80
2023-05-13T19:16:15.582Z,6.60
2023-05-13T19:18:44.027Z,5.93
2023-05-13T19:21:13.678Z,6.10
2023-05-13T19:23:42.024Z,6.20
2023-05-13T19:26:10.411Z,6.50
2023-05-13T19:28:39.449Z,6.05
2023-05-13T19:31:07.868Z,6.47
2023-05-13T19:33:37.067Z,5.85
2023-05-13T19:36:05.695Z,6.30
2023-05-13T19:38:36.542Z,6.20
2023-05-13T19:41:04.830Z,6.15
2023-05-13T19:43:33.162Z,6.28
2023-05-13T19:46:01.505Z,6.35
2023-05-13T19:48:30.665Z,6.28
2023-05-13T19:50:59.066Z,7.00
2023-05-13T19:53:27.428Z,6.50
2023-05-13T19:55:57.515Z,6.53
2023-05-13T19:58:25.869Z,7.00
2023-05-13T20:00:55.227Z,6.47
2023-05-13T20:03:23.634Z,6.22
2023-05-13T20:05:53.128Z,7.00
2023-05-13T20:08:21.869Z,7.25
2023-05-13T20:10:50.210Z,8.20
2023-05-13T20:13:20.499Z,6.75
2023-05-13T20:15:48.774Z,6.50
2023-05-13T20:18:17.386Z,7.07
2023-05-13T20:20:47.060Z,7.82
2023-05-13T20:23:15.434Z,6.97
2023-05-13T20:25:43.791Z,7.13
2023-05-13T20:28:12.098Z,7.18
2023-05-13T20:30:43.684Z,7.60
2023-05-13T20:33:12.110Z,8.20
2023-05-13T20:35:40.961Z,7.80
2023-05-13T20:38:09.264Z,7.55
2023-05-13T20:40:37.773Z,8.02
2023-05-13T20:43:07.789Z,7.57
2023-05-13T20:45:39.408Z,7.35
2023-05-13T20:48:09.865Z,7.47
2023-05-13T20:50:38.488Z,7.45
2023-05-13T20:53:07.137Z,7.93
2023-05-13T20:55:35.506Z,7.65
2023-05-13T20:58:03.809Z,7.60
2023-05-13T21:00:32.172Z,7.47
2023-05-13T21:03:01.264Z,7.20
2023-05-13T21:05:31.735Z,7.93
2023-05-13T21:08:00.002Z,7.22
2023-05-13T21:10:28.354Z,8.70
2023-05-13T21:12:56.600Z,7.90
2023-05-13T21:15:24.871Z,8.52
2023-05-13T21:17:53.290Z,7.75
2023-05-13T21:20:24.969Z,8.45
2023-05-13T21:22:54.893Z,7.65
2023-05-13T21:25:23.284Z,8.50
2023-05-13T21:27:51.578Z,8.48
2023-05-13T21:30:19.859Z,8.32
2023-05-13T21:32:48.195Z,8.70
2023-05-13T21:35:16.691Z,8.82
2023-05-13T21:37:47.183Z,8.68
2023-05-13T21:40:17.561Z,8.85
2023-05-13T21:42:45.992Z,9.23
2023-05-13T21:45:15.155Z,8.60
2023-05-13T21:47:43.544Z,8.63
2023-05-13T21:50:12.660Z,9.02
2023-05-13T21:52:40.933Z,8.10
2023-05-13T21:55:10.019Z,8.52
2023-05-13T21:57:39.760Z,8.70
2023-05-13T22:00:15.076Z,8.40
2023-05-13T22:02:46.510Z,8.90
2023-05-13T22:05:15.259Z,8.95
2023-05-13T22:07:43.706Z,9.18
2023-05-13T22:10:12.628Z,9.13
2023-05-13T22:12:42.325Z,8.38
2023-05-13T22:15:11.947Z,9.93
2023-05-13T22:17:40.439Z,9.88
2023-05-13T22:20:09.893Z,9.32
2023-05-13T22:22:38.245Z,10.30
2023-05-13T22:25:06.997Z,9.55
2023-05-13T22:27:35.273Z,9.60
2023-05-13T22:30:05.403Z,9.38
2023-05-13T22:32:34.416Z,10.35
2023-05-13T22:35:02.762Z,9.85
2023-05-13T22:37:31.235Z,9.77
2023-05-13T22:39:59.488Z,9.27
2023-05-13T22:42:27.817Z,10.13
2023-05-13T22:44:56.073Z,10.73
2023-05-13T22:47:25.863Z,9.75
2023-05-13T22:49:54.333Z,9.95
2023-05-13T22:52:22.624Z,9.75
2023-05-13T22:54:50.914Z,10.70
2023-05-13T22:57:19.167Z,11.43
2023-05-13T22:59:47.434Z,10.63
2023-05-13T23:02:15.776Z,11.23
2023-05-13T23:04:45.497Z,11.35
2023-05-13T23:07:13.812Z,10.63
2023-05-13T23:09:42.063Z,11.48
2023-05-13T23:12:10.549Z,11.23
2023-05-13T23:14:38.778Z,11.30
2023-05-13T23:17:08.095Z,11.52
2023-05-13T23:19:38.130Z,11.10
2023-05-13T23:22:07.796Z,10.75
2023-05-13T23:24:36.090Z,11.27
2023-05-13T23:27:04.775Z,11.00
2023-05-13T23:29:33.054Z,11.00
2023-05-13T23:32:01.633Z,11.82
2023-05-13T23:34:30.768Z,12.13
2023-05-13T23:36:59.055Z,13.30
2023-05-13T23:39:28.786Z,12.43
2023-05-13T23:41:57.063Z,12.88
2023-05-13T23:44:25.886Z,11.90
2023-05-13T23:46:54.138Z,12.63
2023-05-13T23:49:22.660Z,12.48
2023-05-13T23:51:51.061Z,12.73
2023-05-13T23:54:19.348Z,13.35
2023-05-13T23:56:49.191Z,13.13
2023-05-13T23:59:17.474Z,13.05
